Start List

Bib Interval Name Group Team Start Time
1 1 Oettl Julian ALL M +00:00:00
2 2 Lorenzoni Samuele ALL M +00:00:45
3 3 Piller Hoffer Mattia ALL M +00:01:30
4 4 Da Pozzo Gabriele ALL M +00:02:15
5 5 Ranalter Daniel ALL M +00:03:00
6 6 Segor Pietro ALL M +00:03:45
7 7 Pallober Pietro ALL M +00:04:30
8 8 Tumler Philipp ALL M +00:05:15
9 9 Pircher Christoph ALL M +00:06:00
10 10 Pizzolotto Jacopo ALL M +00:06:45
11 11 Fantini Gabriele ALL M +00:07:30
12 12 Buzzi Edoardo ALL M +00:08:15
13 13 Mosquet Leonardo ALL M +00:09:00
14 14 Barale Marco ALL M +00:09:45
15 15 Tranchero Filippo ALL M +00:10:30
16 16 Garin Gerome ALL M +00:11:15
17 17 Giraudo Federico ALL M +00:12:00
18 18 Carollo Martino ALL M +00:12:45
19 19 Ebenkofler Jan ALL M +00:13:30
20 20 Vanzetta Enrico ALL M +00:14:15
21 21 Markart Simon ALL M +00:15:00
22 22 Sansoni Federico ALL M +00:15:45
23 23 Riccadonna Giovanni ALL M +00:16:30
24 24 Menia Tamon Alessandro ALL M +00:17:15
25 25 Livan Giacomo ALL M +00:18:00
26 26 De Candido Dario ALL M +00:18:45
27 27 Kerer Thomas ALL M +00:19:30
28 28 Rainer Lorenz ALL M +00:20:15
29 29 Goggi Nicolas ALL M +00:21:00
30 30 Ratschiller Felix ALL M +00:21:45
31 31 Cencini Cristian ALL M +00:22:30
32 32 Giuliano Guglielmo ALL M +00:23:15
33 33 Ceconi Matteo ALL M +00:24:00
34 34 Merlet Alex ALL M +00:24:45
35 35 Villaz Jilles ALL M +00:25:30
36 36 Petitjacques Julien ALL M +00:26:15
37 37 Gastaldi Andrea ALL M +00:27:00
38 38 Basso Andrea ALL M +00:27:45
39 39 Navillod Stefan ALL M +00:28:30
40 40 Kerer Luca ALL M +00:29:15
41 41 Fenoglio Riccardo ALL M +00:30:00
42 42 Riffeser Michael ALL M +00:30:45
43 43 Leone Federico ALL M +00:31:30
44 44 Gartner Andrea ALL M +00:32:15
45 45 Solero Lorenzo ALL M +00:33:00
46 46 Betemps Nicol´┐Ż ALL M +00:33:45
47 47 Piller Cottrer Fabio ALL M +00:34:30
48 48 Hofer Laurin ALL M +00:35:15
49 49 Perrin Julie ALL F +00:36:00
50 50 Daziano Nicole ALL F +00:36:45
51 51 Berger Hanna ALL F +00:37:30
52 52 Gruber Julia ALL F +00:38:15
53 53 Mezzacasa Anael ALL F +00:39:00
54 54 Rainer Veronika ALL F +00:39:45
55 55 Brusaferri Giulia ALL F +00:40:30
56 56 Cesco Rebecca ALL F +00:41:15
57 57 Costan Dorigon Ludovica ALL F +00:42:00
58 58 Brunner Eva ALL F +00:42:45
59 59 Favilla Benedetta ALL F +00:43:30
60 60 Valentini Esther ALL F +00:44:15
61 61 Wieser Sandra ALL F +00:45:00
62 62 Dalpiaz Martina ALL F +00:45:45
63 63 Schoelzhorn Birgit ALL F +00:46:30
64 64 Planker Denise ALL F +00:47:15
65 65 Carli Sofia ALL F +00:48:00
66 66 Linty Helene ALL F +00:48:45
67 67 Planker Sophia Alice ALL F +00:49:30
68 68 Filippi Gilli Martina ALL F +00:50:15
69 69 Monegato Giada ALL F +00:51:00
70 70 Revelant Arianna ALL F +00:51:45
71 71 Grosso Ambra ALL F +00:52:30
72 72 Giordano Martina ALL F +00:53:15
73 73 Zingerle Rebecca ALL F +00:54:00
74 74 Merici Annalisa ALL F +00:54:45
75 75 Kerschbaumer Judith ALL F +00:55:30
76 76 Pecollo Letizia ALL F +00:56:15
77 77 Huber Elisabeth ALL F +00:57:00
78 78 Piacenza Sara ALL F +00:57:45
79 79 Perathoner Ylvie ALL F +00:58:30
80 80 Ciccarelli Sofia ALL F +00:59:15
81 81 Costa Paola ALL F +01:00:00
82 82 Borettaz Sabrina ALL F +01:00:45
83 83 Rigoni Alessia ALL F +01:01:30
84 84 Valentini Johanna ALL F +01:02:15
85 85 Martini Alessia ALL F +01:03:00
86 86 Weiss Vivien ALL F +01:03:45
87 87 Scattolo Sara ALL F +01:04:30
88 88 Brunello Gaia ALL F +01:05:15
89 89 Trabucchi Martina ALL F +01:06:00
90 90 Hochrainer Michaela ALL F +01:06:45
91 91 Carollo Michele RAG M +01:07:30
92 92 Ferdick Adam RAG M +01:08:15
93 93 Raffl Jonas RAG M +01:09:00
94 94 Bettega Samuele RAG M +01:09:45
95 95 Stella Jacopo RAG M +01:10:30
96 96 Longhi Simone RAG M +01:11:15
97 97 Finco Matteo RAG M +01:12:00
98 98 Silvani Sebastien RAG M +01:12:45
99 99 Schwienbacher Lukas RAG M +01:13:30
100 100 Barrel Dewis RAG M +01:14:15
101 101 Laner Raphael RAG M +01:15:00
102 102 Brancaleone Marco RAG M +01:15:45
103 103 Teissl Paul RAG M +01:16:30
104 104 Rigaudo Gabriele RAG M +01:17:15
105 105 Baldessari Thomas RAG M +01:18:00
106 106 Brunetto Davide RAG M +01:18:45
107 107 Bethaz Pierre RAG M +01:19:30
108 108 Canins Max RAG M +01:20:15
109 109 Craffonara Lorenzo RAG M +01:21:00
110 110 Mair Noah RAG M +01:21:45
111 111 Meneghetti Enrico RAG M +01:22:30
112 112 Del Fabbro Cristian RAG M +01:23:15
113 113 Matarazzo Vincenzo Maria RAG M +01:24:00
114 114 Cecchellero Andrea RAG M +01:24:45
115 115 Ravera Gioele RAG M +01:25:30
116 116 Casagrande Gabriel RAG M +01:26:15
117 117 Weissteiner Ivan RAG M +01:27:00
118 118 Polato Simone RAG M +01:27:45
119 119 Toetsch Pauli RAG M +01:28:30
120 120 Milani Federico RAG M +01:29:15
121 121 Fussambri Davide RAG M +01:30:00
122 122 Pflug Viktor RAG M +01:30:45
123 123 Tua Federico RAG M +01:31:30
124 124 Telfser Alan RAG M +01:32:15
125 125 Gaio Emanuele RAG M +01:33:00
126 126 Ganz Matteo RAG M +01:33:45
127 127 Cagnati Matthias RAG M +01:34:30
128 128 Lozza Cesare RAG M +01:35:15
129 129 Inderst Felix RAG M +01:36:00
130 130 Betemps Simone RAG M +01:36:45
131 131 Segatti Denis RAG M +01:37:30
132 132 Allegri Niccolo' RAG M +01:38:15
133 133 Giordano Nicola RAG M +01:39:00
134 134 Bottasso Mattia RAG M +01:39:45
135 135 Defrancesco Samuele RAG M +01:40:30
136 136 Weissteiner Fabian RAG M +01:41:15
137 137 Curtaz Laurent RAG M +01:42:00
138 138 Blua Thomas RAG M +01:42:45
139 139 Terzer Daniel RAG M +01:43:30
140 140 Ploner Samuel RAG M +01:44:15
141 141 Busin Martino RAG M +01:45:00
142 142 Perissutti Alex RAG M +01:45:45
143 143 Nones Patrik RAG M +01:46:30
144 144 Curtaz Gabriel RAG M +01:47:15
145 145 Navillod Axel RAG M +01:48:00
146 146 Pittin Mattia RAG M +01:48:45
147 147 Bertolino Francesco RAG M +01:49:30
148 148 Volgger Juri RAG M +01:50:15
149 149 Boscariol Eric RAG M +01:51:00
150 150 Auchentaller Leni RAG F +01:51:45
151 151 Del Fabbro Serena RAG F +01:52:30
152 152 Gontel Nadege RAG F +01:53:15
153 153 Slaviero Maria Chiara RAG F +01:54:00
154 154 Kerschbaumer Maria RAG F +01:54:45
155 155 Scattolo Ilaria RAG F +01:55:30
156 156 Daziano Irina RAG F +01:56:15
157 157 Andrighi Giulia RAG F +01:57:00
158 158 Pichler Sophia RAG F +01:57:45
159 159 Brocchiero Francesca RAG F +01:58:30
160 160 Forlin Alessia RAG F +01:59:15
161 161 Piccolin Chiara RAG F +02:00:00
162 162 Piacenza Giulia RAG F +02:00:45
163 163 Carpella Fabiana RAG F +02:01:30
164 164 Salvagno Matilde RAG F +02:02:15
165 165 Pacchiodi Alice RAG F +02:03:00
166 166 Rigo Serena RAG F +02:03:45
167 167 Lardschneider Miriam RAG F +02:04:30
168 168 Bertolini Silvia RAG F +02:05:15
169 169 De Martin Pinter Iris RAG F +02:06:00
170 170 Bystrianska Selina RAG F +02:06:45
171 171 Chiocchetti Beatrice RAG F +02:07:30
172 172 Costa Elena RAG F +02:08:15
173 173 Dutto Maria RAG F +02:09:00
174 174 Obojes Nora RAG F +02:09:45
175 175 Zanvettor Asia RAG F +02:10:30
176 176 Lorenzoni Elisa RAG F +02:11:15
177 177 Ceconi Alessia RAG F +02:12:00
178 178 Rosso Lucrezia RAG F +02:12:45
179 179 Olivier Martina RAG F +02:13:30
180 180 Rossi Giulia RAG F +02:14:15
181 181 Wolfsgruber Sophie RAG F +02:15:00
182 182 Major Samira RAG F +02:15:45
183 183 Pession Amelie RAG F +02:16:30
184 184 Vinante Irene RAG F +02:17:15
185 185 Merlet Sylvie RAG F +02:18:00
186 186 Goller Samira RAG F +02:18:45
187 187 Dalmasso Chiara RAG F +02:19:30
188 188 Vidale Gaia RAG F +02:20:15
189 189 Tomasini Jana RAG F +02:21:00
190 190 Vevey Sophie RAG F +02:21:45
191 191 Markart Laura RAG F +02:22:30
192 192 Iacopetti Giada RAG F +02:23:15
193 193 Gilmozzi Benedetta RAG F +02:24:00
194 194 Costantin Giada RAG F +02:24:45
195 195 Pipione Martina RAG F +02:25:30
196 196 Micheluzzi Lara RAG F +02:26:15
197 197 Gautero Benedetta RAG F +02:27:00
198 198 Nocker Eva RAG F +02:27:45